EA1JAY-2
43.29.33N 005.26.78W
IN73GL aprs.fi
zuletzt gehoert:
2021-12-09T08:15:05Z
zuerst gehoert:
2020-02-23T18:28:32Z

APRS IN73GL, 0 Stunde(n), EA1JAY-2 [09:29:13, 0s].
EA1HWD 43.28.96N 005.26.30WIN73GL 0.495km 153°SSE08:01:45Z144.575FM Local frecuency VHF. 434.2500/434.2500 CC1
EA1FHR 43.28.72N 005.26.41WIN73GL 0.888km 176°S08:01:58ZMMDVM MMDVM HS Hat 439.1500/439.1500 CC1
EB1GEM 43.30.00N 005.36.07WIN73EM 12.995km 277°W08:28:05ZWX3in1Plus2.0 U=13.3V,T=??.?C/??.?F(3EB1GEM-3)
EA1JBU 43.30.80N 005.16.20WIN73IM 14.104km 78°ENE08:00:11ZEA1JBU(3EA1JBU-2)
EA1JBE 43.30.90N 005.16.15WIN73IM 14.222km 77°ENE08:27:30ZMAIN QTH http://qrz.com/db/ea1jbe(3EA1JBE-1)
MAIN QTH http://qrz.com/db/ea1jbe(2EA1JBE-13)
EA1DZR 43.31.48N 005.40.00WIN73EM 18.672km 283°WNW08:03:15ZMMDVM DVS 434.3500/434.3500 CC1
ED1ZAS 43.27.52N 005.40.17WIN73DL 18.696km 261°W08:03:34ZRD985 438.2250/430.6250 CC1
EA1FLQ 43.22.00N 005.36.35WIN73EI 18.844km 225°SW08:02:16ZMMDVM DVMega 439.9750/439.9750 CC1
ED1ZAE 43.27.97N 005.40.54WIN73DL 19.069km 263°W08:11:15Z400 M. PICO SAN MARTIN (GIJON) 13.4V,8.8C(3ED1ZAE-3)
2m Voice 145.5875 -0.600 Mhz(2ED1ZAE-C)
EA1IEJ 43.31.81N 005.40.25WIN73DM 19.148km 285°WNW08:01:50ZMMDVM MMDVM HS Hat 438.8500/438.8500 CC6
LEEL 43.32.98N 005.41.71WIN73DN 21.659km 289°WNW08:00:07ZHelipuerto de El Musel: LEAS 090717Z 27024G37KT 5000 SHRA SCT015TCU BKN022 12/10 Q1017 TEMPO 3000=
EB1TK 43.32.22N 005.42.32WIN73DM 22.031km 285°WNW08:25:18ZWind 243°/014kn, Böen bis 028kn, Temp 11.67c, Regen 1.8mm, letzte 24h 19.6mm, seit 0h 19.6mm, Baro 1020.1h, Hum: 94%(3EB1TK-13)
EB1AD 43.30.31N 005.44.53WIN73DM 24.379km 275°W08:28:58ZCarlos(3EB1AD-9)
EA1IPU 43.26.21N 005.46.62WIN73CK 27.659km 259°W08:00:18ZMMDVM MMDVM HS Hat 439.8000/439.8000 CC1
EA1ABW 43.24.77N 005.47.77WIN73CJ 29.815km 254°WSW08:01:00ZMMDVM MMDVM HS Hat 439.8250/439.8250 CC1
LEMR 43.25.83N 005.49.60WIN73CK 31.746km 259°W08:00:08ZAerodromo de la Morgal: LEAS 090717Z 27024G37KT 5000 SHRA SCT015TCU BKN022 12/10 Q1017 TEMPO 3000=
LEGM 43.26.15N 005.49.84WIN73CK 31.934km 260°W08:00:06ZHelipuerto de La Morgal: LEAS 090717Z 27024G37KT 5000 SHRA SCT015TCU BKN022 12/10 Q1017 TEMPO 3000=
ED1ZBF 43.19.16N 005.06.74WIN73KH 32.402km 125°SE08:03:33ZRD625 438.4750/430.8750 CC1
LEHU 43.22.63N 005.49.57WIN73CJ 33.396km 249°WSW08:00:07ZHelipuerto del HUCA: LEAS 090717Z 27024G37KT 5000 SHRA SCT015TCU BKN022 12/10 Q1017 TEMPO 3000=
33D00 43.21.63N 005.51.13WIN73BI 36.031km 247°WSW08:02:56Z33-D-00 Protección Civil REMER / Delegación del Gobierno en Asturias
EA1JAY 43.21.54N 005.51.34WIN73BI 36.369km 247°WSW08:00:11ZEA1JAY(3EA1JAY-2)
434.525MHz Nodo TETRA DMO(2EA1JAY-4)
EA1YR 43.22.09N 005.51.86WIN73BI 36.626km 249°WSW08:03:03ZMMDVM DVS 434.3500/434.3500 CC1
EA1L 43.20.38N 005.51.13WIN73BI 37.003km 244°WSW08:11:49ZWind 000°/000kn, Böen bis 000kn, Temp 6.11c, Regen 0.0mm, letzte 24h 1.3mm, seit 0h 1.3mm, Baro 1016.5h, Hum: 92%(3EA1L-13)
ea1l@ure.es V=13.4V,T=??.?C(2EA1L)
ED1ZAU 43.23.04N 005.52.75WIN73BJ 37.171km 252°WSW08:03:33ZRD625 438.5000/430.9000 CC1
EA1HJA 43.21.47N 005.52.09WIN73BI 37.343km 248°WSW08:16:52Z IN73FL WX3IN1+ 2.0 - V=13.2V,TX TEMP=23.1C(3EA1HJA-2)
EA1HJA@URE.ES(2EA1HJA)
EA1HWX 43.19.29N 005.50.96WIN73BH 37.750km 241°WSW08:01:50ZDMO - UHF 439.7250/431.0000 CC11
EA1AHA 43.32.72N 005.54.38WIN73BN 38.073km 280°W08:21:37ZWind 315°/020kn, Böen bis 023kn, Temp 12.78c, Regen 11.4mm, letzte 24h 163.6mm, seit 0h 163.6mm, Baro 1019.5h, Hum: 78%(3EA1AHA-13)
EA1IMW 43.14.36N 005.46.93WIN73CF 38.933km 225°SW08:03:10ZGRUPO RADIO GALENA (GRG) 430.4500/430.4500 CC1
EB1DGC 43.12.60N 005.45.59WIN73CF 40.131km 220°SW08:00:39ZMMDVM MMDVM HS Hat 433.4500/433.4500 CC1
ED1ZAY 43.29.47N 005.56.54WIN73AL 40.444km 271°W08:03:34ZRD625 438.3000/430.7000 CC1
EA1JBL 43.12.28N 005.47.42WIN73CE 42.183km 222°SW08:00:40ZMMDVM DVMega 435.3000/435.3000 CC1
EA1HWA 43.12.00N 005.47.40WIN73CE 42.558km 222°SW08:02:22ZMMDVM MMDVM HS Hat 433.4500/433.4500 CC1
ED1ZAD 43.07.90N 005.38.52WIN73ED 42.667km 202°SSW08:04:02ZED1ZAD-3 APRS Digi/Igate(3ED1ZAD-3)
EA1DHE 43.33.98N 005.58.57WIN73AN 44.033km 282°WNW08:03:06ZMMDVM DVS 434.3500/434.3500 CC1
EA1RCG 43.09.45N 005.49.78WIN73CD 48.229km 221°SW08:00:54ZGRUPO RADIO GALENA (GRG) 430.4500/430.4500 CC1

aprs.pl 5.0.011w DL3EL © 2006-2021 [1198627]